createdAt,value
2017-12-24T00:01:52.286Z,84.09
2017-12-24T00:07:55.927Z,84.24
2017-12-24T00:14:00.183Z,83.63
2017-12-24T00:20:03.784Z,83.00
2017-12-24T00:26:07.283Z,82.83
2017-12-24T00:32:11.551Z,82.44
2017-12-24T00:38:15.151Z,82.00
2017-12-24T00:44:18.662Z,82.00
2017-12-24T00:50:22.340Z,81.13
2017-12-24T00:56:26.514Z,81.57
2017-12-24T01:02:30.771Z,81.53
2017-12-24T01:08:35.055Z,81.33
2017-12-24T01:14:39.305Z,81.71
2017-12-24T01:20:42.862Z,81.62
2017-12-24T01:26:46.364Z,81.27
2017-12-24T01:32:50.179Z,81.46
2017-12-24T01:38:53.980Z,81.38
2017-12-24T01:44:57.480Z,81.56
2017-12-24T01:51:00.979Z,81.69
2017-12-24T01:57:05.439Z,81.20
2017-12-24T02:03:09.001Z,81.65
2017-12-24T02:09:13.257Z,81.53
2017-12-24T02:15:16.717Z,81.05
2017-12-24T02:21:20.319Z,81.38
2017-12-24T02:27:24.253Z,81.87
2017-12-24T02:33:27.766Z,81.42
2017-12-24T02:39:31.238Z,81.74
2017-12-24T02:45:34.751Z,81.50
2017-12-24T02:51:38.227Z,81.63
2017-12-24T02:57:41.808Z,81.56
2017-12-24T03:03:45.476Z,81.46
2017-12-24T03:09:49.715Z,81.84
2017-12-24T03:15:53.371Z,81.81
2017-12-24T03:21:56.960Z,81.81
2017-12-24T03:28:01.209Z,81.79
2017-12-24T03:34:04.794Z,81.64
2017-12-24T03:40:09.049Z,81.64
2017-12-24T03:46:12.570Z,81.93
2017-12-24T03:52:16.344Z,82.00
2017-12-24T03:58:20.330Z,82.26
2017-12-24T04:04:25.284Z,82.62
2017-12-24T04:10:28.852Z,82.61
2017-12-24T04:16:32.389Z,82.70
2017-12-24T04:22:36.698Z,82.94
2017-12-24T04:28:40.184Z,83.09
2017-12-24T04:34:43.702Z,82.97
2017-12-24T04:40:48.705Z,83.34
2017-12-24T04:46:52.968Z,83.30
2017-12-24T04:52:56.463Z,83.02
2017-12-24T04:58:59.933Z,83.25
2017-12-24T05:05:03.516Z,83.28
2017-12-24T05:11:07.033Z,83.49
2017-12-24T05:17:11.382Z,83.40
2017-12-24T05:23:15.633Z,83.38
2017-12-24T05:29:19.142Z,83.36
2017-12-24T05:35:23.284Z,83.25
2017-12-24T05:41:27.815Z,83.29
2017-12-24T05:47:31.385Z,83.30
2017-12-24T05:53:35.854Z,83.13
2017-12-24T05:59:39.508Z,83.12
2017-12-24T06:05:43.000Z,83.04
2017-12-24T06:11:46.506Z,82.98
2017-12-24T06:17:50.219Z,82.78
2017-12-24T06:23:54.772Z,82.58
2017-12-24T06:29:58.582Z,82.75
2017-12-24T06:36:02.079Z,82.99
2017-12-24T06:42:05.593Z,82.91
2017-12-24T06:48:09.099Z,82.91
2017-12-24T06:54:12.639Z,83.02
2017-12-24T07:00:16.153Z,83.40
2017-12-24T07:06:19.876Z,83.28
2017-12-24T07:12:24.069Z,83.44
2017-12-24T07:18:27.671Z,83.47
2017-12-24T07:24:31.137Z,83.23
2017-12-24T07:30:34.614Z,82.96
2017-12-24T07:36:38.863Z,82.92
2017-12-24T07:42:43.232Z,82.67
2017-12-24T07:48:46.694Z,83.01
2017-12-24T07:54:50.512Z,83.16
2017-12-24T08:00:55.521Z,82.98
2017-12-24T08:06:59.027Z,83.07
2017-12-24T08:13:02.617Z,83.03
2017-12-24T08:19:06.090Z,82.93
2017-12-24T08:25:09.570Z,83.11
2017-12-24T08:31:13.839Z,83.25
2017-12-24T08:37:17.377Z,83.30
2017-12-24T08:43:21.115Z,83.13
2017-12-24T08:49:25.302Z,83.16
2017-12-24T08:55:28.862Z,82.98
2017-12-24T09:01:32.386Z,82.99
2017-12-24T09:07:35.969Z,82.75
2017-12-24T09:13:39.563Z,82.39
2017-12-24T09:19:43.821Z,82.55
2017-12-24T09:25:48.367Z,82.95
2017-12-24T09:31:52.806Z,82.69
2017-12-24T09:37:56.433Z,82.60
2017-12-24T09:44:00.822Z,83.26
2017-12-24T09:50:04.358Z,83.09
2017-12-24T09:56:07.833Z,83.19
2017-12-24T10:02:11.670Z,83.24
2017-12-24T10:08:15.310Z,82.94
2017-12-24T10:14:18.999Z,82.42
2017-12-24T10:20:23.404Z,82.05
2017-12-24T10:26:27.016Z,81.83
2017-12-24T10:32:30.635Z,81.44
2017-12-24T10:38:34.414Z,80.84
2017-12-24T10:44:37.939Z,80.71
2017-12-24T10:50:41.604Z,80.72
2017-12-24T10:56:45.151Z,80.89
2017-12-24T11:02:48.709Z,80.63
2017-12-24T11:08:52.601Z,80.65
2017-12-24T11:14:56.058Z,80.46
2017-12-24T11:20:59.580Z,81.04
2017-12-24T11:27:03.042Z,81.04
2017-12-24T11:33:06.794Z,81.32
2017-12-24T11:39:10.283Z,81.60
2017-12-24T11:45:14.131Z,81.89
2017-12-24T11:51:17.633Z,81.78
2017-12-24T11:57:21.987Z,81.90
2017-12-24T12:03:26.374Z,81.55
2017-12-24T12:09:30.623Z,81.66
2017-12-24T12:15:34.144Z,81.61
2017-12-24T12:21:37.615Z,81.57
2017-12-24T12:27:41.163Z,80.57
2017-12-24T12:33:44.664Z,80.34
2017-12-24T12:39:48.168Z,80.15
2017-12-24T12:45:51.961Z,79.87
2017-12-24T12:51:55.701Z,79.84
2017-12-24T12:57:59.231Z,80.21
2017-12-24T13:04:02.732Z,79.89
2017-12-24T13:10:06.279Z,80.29
2017-12-24T13:16:09.807Z,80.46
2017-12-24T13:22:13.393Z,80.92
2017-12-24T13:28:16.904Z,81.11
2017-12-24T13:34:20.684Z,81.33
2017-12-24T13:40:24.161Z,81.87
2017-12-24T13:46:27.656Z,82.51
2017-12-24T13:52:31.167Z,81.98
2017-12-24T13:58:34.650Z,82.35
2017-12-24T14:04:39.188Z,82.77
2017-12-24T14:10:42.677Z,82.37
2017-12-24T14:16:46.157Z,82.28
2017-12-24T14:22:49.849Z,82.81
2017-12-24T14:28:53.847Z,83.03
2017-12-24T14:34:57.390Z,83.25
2017-12-24T14:41:00.935Z,83.69
2017-12-24T14:47:04.406Z,83.75
2017-12-24T14:53:07.934Z,83.13
2017-12-24T14:59:11.373Z,82.81
2017-12-24T15:05:14.827Z,82.60
2017-12-24T15:11:18.305Z,82.34
2017-12-24T15:17:21.840Z,82.32
2017-12-24T15:23:26.050Z,82.90
2017-12-24T15:29:29.560Z,82.74
2017-12-24T15:35:33.090Z,82.54
2017-12-24T15:41:36.566Z,82.22
2017-12-24T15:47:40.060Z,82.00
2017-12-24T15:53:43.560Z,81.88
2017-12-24T15:59:47.030Z,82.20
2017-12-24T16:05:50.565Z,82.14
2017-12-24T16:11:54.287Z,82.11
2017-12-24T16:17:57.812Z,81.95
2017-12-24T16:24:01.289Z,82.10
2017-12-24T16:30:06.148Z,81.83
2017-12-24T16:36:09.796Z,81.74
2017-12-24T16:42:13.655Z,81.75
2017-12-24T16:48:17.180Z,81.83
2017-12-24T16:54:21.928Z,81.70
2017-12-24T17:00:25.954Z,81.72
2017-12-24T17:06:29.463Z,81.73
2017-12-24T17:12:33.131Z,81.27
2017-12-24T17:18:37.398Z,81.14
2017-12-24T17:24:41.014Z,80.70
2017-12-24T17:30:44.495Z,80.63
2017-12-24T17:36:47.993Z,80.45
2017-12-24T17:42:51.994Z,80.03
2017-12-24T17:48:56.406Z,80.21
2017-12-24T17:55:00.633Z,80.04
2017-12-24T18:01:04.103Z,80.41
2017-12-24T18:07:07.569Z,80.19
2017-12-24T18:13:11.063Z,80.11
2017-12-24T18:19:14.942Z,80.15
2017-12-24T18:25:18.415Z,80.16
2017-12-24T18:31:22.149Z,80.13
2017-12-24T18:37:25.777Z,80.19
2017-12-24T18:43:30.332Z,80.33
2017-12-24T18:49:33.967Z,79.87
2017-12-24T18:55:37.575Z,80.28
2017-12-24T19:01:41.829Z,79.41
2017-12-24T19:07:46.110Z,79.70
2017-12-24T19:13:50.362Z,79.86
2017-12-24T19:19:53.829Z,79.80
2017-12-24T19:25:57.422Z,79.82
2017-12-24T19:32:00.900Z,79.66
2017-12-24T19:38:04.387Z,79.91
2017-12-24T19:44:07.861Z,79.68
2017-12-24T19:50:12.145Z,79.62
2017-12-24T19:56:15.756Z,79.32
2017-12-24T20:02:19.437Z,79.86
2017-12-24T20:08:23.002Z,79.97
2017-12-24T20:14:27.259Z,79.55
2017-12-24T20:20:30.992Z,79.66
2017-12-24T20:26:34.466Z,79.71
2017-12-24T20:32:38.109Z,79.80
2017-12-24T20:38:42.494Z,79.55
2017-12-24T20:44:46.102Z,79.58
2017-12-24T20:50:49.812Z,79.67
2017-12-24T20:56:53.610Z,79.66
2017-12-24T21:02:57.629Z,79.54
2017-12-24T21:09:01.146Z,79.46
2017-12-24T21:15:04.763Z,79.43
2017-12-24T21:21:08.437Z,79.36
2017-12-24T21:27:12.258Z,79.33
2017-12-24T21:33:15.897Z,79.38
2017-12-24T21:39:19.364Z,79.48
2017-12-24T21:45:23.471Z,79.56
2017-12-24T21:51:27.829Z,79.54
2017-12-24T21:57:31.344Z,79.80
2017-12-24T22:03:34.835Z,79.86
2017-12-24T22:09:38.346Z,79.70
2017-12-24T22:15:41.842Z,79.97
2017-12-24T22:21:46.107Z,79.81
2017-12-24T22:27:49.567Z,79.77
2017-12-24T22:33:53.932Z,80.47
2017-12-24T22:39:57.433Z,81.29
2017-12-24T22:46:00.945Z,81.91
2017-12-24T22:52:04.419Z,82.36
2017-12-24T22:58:07.940Z,82.51
2017-12-24T23:04:11.439Z,82.36
2017-12-24T23:10:14.968Z,81.89
2017-12-24T23:16:18.480Z,81.58
2017-12-24T23:22:22.715Z,81.55
2017-12-24T23:28:27.058Z,81.46
2017-12-24T23:34:30.623Z,81.43
2017-12-24T23:40:34.111Z,81.58
2017-12-24T23:46:37.861Z,81.76
2017-12-24T23:52:41.367Z,81.88
2017-12-24T23:58:44.849Z,82.15
